sensor_id;sensor_type;location;lat;lon;timestamp;P1;durP1;ratioP1;P2;durP2;ratioP2
47225;SDS011;32965;64.142;-21.912;2024-02-16T00:01:00;23.20;;;10.40;;
47225;SDS011;32965;64.142;-21.912;2024-02-16T00:03:27;17.53;;;7.90;;
47225;SDS011;32965;64.142;-21.912;2024-02-16T00:05:53;16.80;;;8.10;;
47225;SDS011;32965;64.142;-21.912;2024-02-16T00:08:19;16.83;;;8.80;;
47225;SDS011;32965;64.142;-21.912;2024-02-16T00:10:45;18.27;;;7.63;;
47225;SDS011;32965;64.142;-21.912;2024-02-16T00:13:12;16.97;;;7.57;;
47225;SDS011;32965;64.142;-21.912;2024-02-16T00:15:38;16.03;;;7.60;;
47225;SDS011;32965;64.142;-21.912;2024-02-16T00:18:07;15.37;;;7.20;;
47225;SDS011;32965;64.142;-21.912;2024-02-16T00:20:33;15.02;;;6.85;;
47225;SDS011;32965;64.142;-21.912;2024-02-16T00:22:59;14.97;;;6.97;;
47225;SDS011;32965;64.142;-21.912;2024-02-16T00:25:27;16.13;;;7.65;;
47225;SDS011;32965;64.142;-21.912;2024-02-16T00:27:53;17.50;;;7.60;;
47225;SDS011;32965;64.142;-21.912;2024-02-16T00:30:19;16.47;;;8.00;;
47225;SDS011;32965;64.142;-21.912;2024-02-16T00:32:46;22.67;;;8.90;;
47225;SDS011;32965;64.142;-21.912;2024-02-16T00:35:12;17.67;;;8.30;;
47225;SDS011;32965;64.142;-21.912;2024-02-16T00:37:41;19.20;;;9.10;;
47225;SDS011;32965;64.142;-21.912;2024-02-16T00:40:07;19.23;;;8.23;;
47225;SDS011;32965;64.142;-21.912;2024-02-16T00:42:34;20.80;;;8.67;;
47225;SDS011;32965;64.142;-21.912;2024-02-16T00:44:59;21.77;;;8.90;;
47225;SDS011;32965;64.142;-21.912;2024-02-16T00:47:25;21.23;;;8.53;;
47225;SDS011;32965;64.142;-21.912;2024-02-16T00:52:21;17.80;;;7.57;;
47225;SDS011;32965;64.142;-21.912;2024-02-16T00:54:48;12.73;;;7.03;;
47225;SDS011;32965;64.142;-21.912;2024-02-16T00:57:14;15.57;;;6.90;;
47225;SDS011;32965;64.142;-21.912;2024-02-16T00:59:40;14.10;;;6.77;;
47225;SDS011;32965;64.142;-21.912;2024-02-16T01:02:06;12.60;;;6.33;;
47225;SDS011;32965;64.142;-21.912;2024-02-16T01:04:32;9.20;;;5.00;;
47225;SDS011;32965;64.142;-21.912;2024-02-16T01:06:59;9.57;;;4.87;;
47225;SDS011;32965;64.142;-21.912;2024-02-16T01:09:24;12.93;;;5.70;;
47225;SDS011;32965;64.142;-21.912;2024-02-16T01:11:52;9.67;;;5.03;;
47225;SDS011;32965;64.142;-21.912;2024-02-16T01:14:18;10.00;;;4.80;;
47225;SDS011;32965;64.142;-21.912;2024-02-16T01:16:44;11.57;;;4.90;;
47225;SDS011;32965;64.142;-21.912;2024-02-16T01:19:11;10.87;;;4.50;;
47225;SDS011;32965;64.142;-21.912;2024-02-16T01:21:37;12.67;;;5.77;;
47225;SDS011;32965;64.142;-21.912;2024-02-16T01:24:03;11.27;;;5.07;;
47225;SDS011;32965;64.142;-21.912;2024-02-16T01:26:30;12.00;;;5.90;;
47225;SDS011;32965;64.142;-21.912;2024-02-16T01:28:56;10.27;;;4.60;;
47225;SDS011;32965;64.142;-21.912;2024-02-16T01:31:23;11.50;;;4.60;;
47225;SDS011;32965;64.142;-21.912;2024-02-16T01:33:48;8.57;;;4.37;;
47225;SDS011;32965;64.142;-21.912;2024-02-16T01:36:14;12.10;;;4.30;;
47225;SDS011;32965;64.142;-21.912;2024-02-16T01:38:40;10.17;;;4.57;;
47225;SDS011;32965;64.142;-21.912;2024-02-16T01:41:06;9.33;;;4.57;;
47225;SDS011;32965;64.142;-21.912;2024-02-16T01:43:33;8.30;;;3.90;;
47225;SDS011;32965;64.142;-21.912;2024-02-16T01:45:59;7.73;;;3.40;;
47225;SDS011;32965;64.142;-21.912;2024-02-16T01:48:26;5.87;;;2.70;;
47225;SDS011;32965;64.142;-21.912;2024-02-16T01:50:52;4.20;;;1.67;;
47225;SDS011;32965;64.142;-21.912;2024-02-16T01:53:19;5.90;;;2.10;;
47225;SDS011;32965;64.142;-21.912;2024-02-16T01:55:46;5.13;;;2.17;;
47225;SDS011;32965;64.142;-21.912;2024-02-16T01:58:12;3.50;;;2.00;;
47225;SDS011;32965;64.142;-21.912;2024-02-16T02:00:39;4.23;;;1.77;;
47225;SDS011;32965;64.142;-21.912;2024-02-16T02:05:33;3.17;;;1.60;;
47225;SDS011;32965;64.142;-21.912;2024-02-16T02:08:08;2.90;;;1.73;;
47225;SDS011;32965;64.142;-21.912;2024-02-16T02:10:35;15.40;;;6.47;;
47225;SDS011;32965;64.142;-21.912;2024-02-16T02:13:00;8.40;;;4.33;;
47225;SDS011;32965;64.142;-21.912;2024-02-16T02:15:26;3.93;;;1.67;;
47225;SDS011;32965;64.142;-21.912;2024-02-16T02:17:52;3.53;;;1.30;;
47225;SDS011;32965;64.142;-21.912;2024-02-16T02:20:19;1.30;;;0.90;;
47225;SDS011;32965;64.142;-21.912;2024-02-16T02:22:45;3.03;;;0.90;;
47225;SDS011;32965;64.142;-21.912;2024-02-16T02:25:10;2.03;;;0.90;;
47225;SDS011;32965;64.142;-21.912;2024-02-16T02:27:37;1.43;;;0.63;;
47225;SDS011;32965;64.142;-21.912;2024-02-16T02:30:04;1.57;;;0.70;;
47225;SDS011;32965;64.142;-21.912;2024-02-16T02:32:30;1.50;;;0.80;;
47225;SDS011;32965;64.142;-21.912;2024-02-16T02:34:56;1.27;;;0.60;;
47225;SDS011;32965;64.142;-21.912;2024-02-16T02:37:22;1.23;;;0.60;;
47225;SDS011;32965;64.142;-21.912;2024-02-16T02:39:48;1.57;;;0.63;;
47225;SDS011;32965;64.142;-21.912;2024-02-16T02:42:13;3.60;;;0.60;;
47225;SDS011;32965;64.142;-21.912;2024-02-16T02:44:39;1.20;;;0.43;;
47225;SDS011;32965;64.142;-21.912;2024-02-16T02:47:05;3.90;;;0.93;;
47225;SDS011;32965;64.142;-21.912;2024-02-16T02:49:31;1.30;;;0.43;;
47225;SDS011;32965;64.142;-21.912;2024-02-16T02:51:59;3.08;;;0.93;;
47225;SDS011;32965;64.142;-21.912;2024-02-16T02:54:26;0.70;;;0.30;;
47225;SDS011;32965;64.142;-21.912;2024-02-16T02:56:52;1.83;;;0.30;;
47225;SDS011;32965;64.142;-21.912;2024-02-16T02:59:18;0.87;;;0.37;;
47225;SDS011;32965;64.142;-21.912;2024-02-16T03:01:44;2.17;;;0.40;;
47225;SDS011;32965;64.142;-21.912;2024-02-16T03:04:10;2.67;;;0.47;;
47225;SDS011;32965;64.142;-21.912;2024-02-16T03:06:36;1.30;;;0.40;;
47225;SDS011;32965;64.142;-21.912;2024-02-16T03:09:02;1.27;;;0.47;;
47225;SDS011;32965;64.142;-21.912;2024-02-16T03:11:28;1.13;;;0.67;;
47225;SDS011;32965;64.142;-21.912;2024-02-16T03:13:53;0.90;;;0.23;;
47225;SDS011;32965;64.142;-21.912;2024-02-16T03:16:20;2.63;;;0.70;;
47225;SDS011;32965;64.142;-21.912;2024-02-16T03:18:45;1.70;;;0.40;;
47225;SDS011;32965;64.142;-21.912;2024-02-16T03:21:14;0.90;;;0.53;;
47225;SDS011;32965;64.142;-21.912;2024-02-16T03:23:41;1.63;;;0.40;;
47225;SDS011;32965;64.142;-21.912;2024-02-16T03:26:16;1.37;;;0.57;;
47225;SDS011;32965;64.142;-21.912;2024-02-16T03:28:45;1.10;;;0.43;;
47225;SDS011;32965;64.142;-21.912;2024-02-16T03:31:18;1.30;;;0.50;;
47225;SDS011;32965;64.142;-21.912;2024-02-16T03:33:45;2.13;;;0.47;;
47225;SDS011;32965;64.142;-21.912;2024-02-16T03:36:12;2.27;;;0.60;;
47225;SDS011;32965;64.142;-21.912;2024-02-16T03:38:42;1.13;;;0.60;;
47225;SDS011;32965;64.142;-21.912;2024-02-16T03:41:12;1.70;;;0.40;;
47225;SDS011;32965;64.142;-21.912;2024-02-16T03:43:39;2.10;;;0.40;;
47225;SDS011;32965;64.142;-21.912;2024-02-16T03:46:05;1.87;;;0.27;;
47225;SDS011;32965;64.142;-21.912;2024-02-16T03:48:31;1.70;;;0.50;;
47225;SDS011;32965;64.142;-21.912;2024-02-16T03:50:57;0.27;;;0.17;;
47225;SDS011;32965;64.142;-21.912;2024-02-16T03:53:23;0.53;;;0.27;;
47225;SDS011;32965;64.142;-21.912;2024-02-16T03:55:49;6.13;;;1.17;;
47225;SDS011;32965;64.142;-21.912;2024-02-16T03:58:15;1.90;;;0.40;;
47225;SDS011;32965;64.142;-21.912;2024-02-16T04:00:42;0.60;;;0.33;;
47225;SDS011;32965;64.142;-21.912;2024-02-16T04:03:08;3.30;;;0.30;;
47225;SDS011;32965;64.142;-21.912;2024-02-16T04:05:34;0.30;;;0.17;;
47225;SDS011;32965;64.142;-21.912;2024-02-16T04:08:00;0.70;;;0.20;;
47225;SDS011;32965;64.142;-21.912;2024-02-16T04:10:28;2.53;;;0.47;;
47225;SDS011;32965;64.142;-21.912;2024-02-16T04:12:54;1.60;;;0.13;;
47225;SDS011;32965;64.142;-21.912;2024-02-16T04:15:20;2.13;;;0.30;;
47225;SDS011;32965;64.142;-21.912;2024-02-16T04:17:47;1.10;;;0.30;;
47225;SDS011;32965;64.142;-21.912;2024-02-16T04:20:15;1.70;;;0.40;;
47225;SDS011;32965;64.142;-21.912;2024-02-16T04:22:41;1.70;;;0.30;;
47225;SDS011;32965;64.142;-21.912;2024-02-16T04:25:07;0.20;;;0.20;;
47225;SDS011;32965;64.142;-21.912;2024-02-16T04:27:34;0.30;;;0.30;;
47225;SDS011;32965;64.142;-21.912;2024-02-16T04:30:00;0.47;;;0.10;;
47225;SDS011;32965;64.142;-21.912;2024-02-16T04:32:26;0.13;;;0.00;;
47225;SDS011;32965;64.142;-21.912;2024-02-16T04:34:52;0.53;;;0.20;;
47225;SDS011;32965;64.142;-21.912;2024-02-16T04:37:18;0.37;;;0.17;;
47225;SDS011;32965;64.142;-21.912;2024-02-16T04:39:44;0.10;;;0.07;;
47225;SDS011;32965;64.142;-21.912;2024-02-16T04:42:10;1.83;;;0.30;;
47225;SDS011;32965;64.142;-21.912;2024-02-16T04:44:36;2.13;;;0.20;;
47225;SDS011;32965;64.142;-21.912;2024-02-16T04:47:06;2.33;;;0.37;;
47225;SDS011;32965;64.142;-21.912;2024-02-16T04:49:32;0.60;;;0.20;;
47225;SDS011;32965;64.142;-21.912;2024-02-16T04:51:57;1.20;;;0.17;;
47225;SDS011;32965;64.142;-21.912;2024-02-16T04:54:23;0.77;;;0.20;;
47225;SDS011;32965;64.142;-21.912;2024-02-16T04:56:50;0.30;;;0.00;;
47225;SDS011;32965;64.142;-21.912;2024-02-16T04:59:19;4.67;;;0.60;;
47225;SDS011;32965;64.142;-21.912;2024-02-16T05:04:10;1.27;;;0.20;;
47225;SDS011;32965;64.142;-21.912;2024-02-16T05:06:38;0.67;;;0.20;;
47225;SDS011;32965;64.142;-21.912;2024-02-16T05:09:05;3.17;;;0.30;;
47225;SDS011;32965;64.142;-21.912;2024-02-16T05:11:34;0.30;;;0.10;;
47225;SDS011;32965;64.142;-21.912;2024-02-16T05:16:26;2.33;;;0.10;;
47225;SDS011;32965;64.142;-21.912;2024-02-16T05:18:52;1.40;;;0.20;;
47225;SDS011;32965;64.142;-21.912;2024-02-16T05:21:18;3.90;;;0.50;;
47225;SDS011;32965;64.142;-21.912;2024-02-16T05:23:44;0.17;;;0.17;;
47225;SDS011;32965;64.142;-21.912;2024-02-16T05:26:10;0.17;;;0.17;;
47225;SDS011;32965;64.142;-21.912;2024-02-16T05:28:35;4.60;;;0.30;;
47225;SDS011;32965;64.142;-21.912;2024-02-16T05:31:15;1.60;;;0.20;;
47225;SDS011;32965;64.142;-21.912;2024-02-16T05:33:45;2.40;;;0.30;;
47225;SDS011;32965;64.142;-21.912;2024-02-16T05:36:18;1.60;;;0.10;;
47225;SDS011;32965;64.142;-21.912;2024-02-16T05:38:48;1.23;;;0.27;;
47225;SDS011;32965;64.142;-21.912;2024-02-16T05:41:13;1.42;;;0.30;;
47225;SDS011;32965;64.142;-21.912;2024-02-16T05:43:42;1.80;;;0.50;;
47225;SDS011;32965;64.142;-21.912;2024-02-16T05:46:12;0.20;;;0.10;;
47225;SDS011;32965;64.142;-21.912;2024-02-16T05:48:38;0.83;;;0.10;;
47225;SDS011;32965;64.142;-21.912;2024-02-16T05:51:05;2.00;;;0.60;;
47225;SDS011;32965;64.142;-21.912;2024-02-16T05:53:34;0.83;;;0.10;;
47225;SDS011;32965;64.142;-21.912;2024-02-16T05:56:01;0.10;;;0.10;;
47225;SDS011;32965;64.142;-21.912;2024-02-16T05:58:27;0.70;;;0.20;;
47225;SDS011;32965;64.142;-21.912;2024-02-16T06:00:54;0.23;;;0.10;;
47225;SDS011;32965;64.142;-21.912;2024-02-16T06:03:20;0.30;;;0.20;;
47225;SDS011;32965;64.142;-21.912;2024-02-16T06:05:46;0.50;;;0.20;;
47225;SDS011;32965;64.142;-21.912;2024-02-16T06:08:12;0.70;;;0.20;;
47225;SDS011;32965;64.142;-21.912;2024-02-16T06:10:39;1.67;;;0.20;;
47225;SDS011;32965;64.142;-21.912;2024-02-16T06:13:06;0.40;;;0.30;;
47225;SDS011;32965;64.142;-21.912;2024-02-16T06:15:33;0.70;;;0.40;;
47225;SDS011;32965;64.142;-21.912;2024-02-16T06:17:59;0.47;;;0.20;;
47225;SDS011;32965;64.142;-21.912;2024-02-16T06:20:26;2.47;;;0.30;;
47225;SDS011;32965;64.142;-21.912;2024-02-16T06:22:51;1.27;;;0.23;;
47225;SDS011;32965;64.142;-21.912;2024-02-16T06:25:17;0.67;;;0.40;;
47225;SDS011;32965;64.142;-21.912;2024-02-16T06:27:44;0.80;;;0.27;;
47225;SDS011;32965;64.142;-21.912;2024-02-16T06:30:10;1.17;;;0.70;;
47225;SDS011;32965;64.142;-21.912;2024-02-16T06:32:38;2.47;;;1.27;;
47225;SDS011;32965;64.142;-21.912;2024-02-16T06:35:06;1.63;;;0.83;;
47225;SDS011;32965;64.142;-21.912;2024-02-16T06:37:33;1.30;;;0.90;;
47225;SDS011;32965;64.142;-21.912;2024-02-16T06:39:58;2.87;;;1.23;;
47225;SDS011;32965;64.142;-21.912;2024-02-16T06:42:24;2.07;;;1.10;;
47225;SDS011;32965;64.142;-21.912;2024-02-16T06:44:50;3.03;;;1.30;;
47225;SDS011;32965;64.142;-21.912;2024-02-16T06:47:16;3.43;;;1.30;;
47225;SDS011;32965;64.142;-21.912;2024-02-16T06:49:41;2.77;;;1.53;;
47225;SDS011;32965;64.142;-21.912;2024-02-16T06:52:08;2.43;;;1.10;;
47225;SDS011;32965;64.142;-21.912;2024-02-16T06:54:35;2.40;;;1.10;;
47225;SDS011;32965;64.142;-21.912;2024-02-16T06:57:00;2.17;;;1.20;;
47225;SDS011;32965;64.142;-21.912;2024-02-16T06:59:26;3.47;;;0.90;;
47225;SDS011;32965;64.142;-21.912;2024-02-16T07:01:52;3.47;;;1.40;;
47225;SDS011;32965;64.142;-21.912;2024-02-16T07:04:18;6.13;;;1.57;;
47225;SDS011;32965;64.142;-21.912;2024-02-16T07:06:44;2.87;;;1.50;;
47225;SDS011;32965;64.142;-21.912;2024-02-16T07:09:10;2.77;;;1.30;;
47225;SDS011;32965;64.142;-21.912;2024-02-16T07:11:39;3.00;;;1.43;;
47225;SDS011;32965;64.142;-21.912;2024-02-16T07:14:05;3.10;;;1.57;;
47225;SDS011;32965;64.142;-21.912;2024-02-16T07:16:31;1.93;;;1.50;;
47225;SDS011;32965;64.142;-21.912;2024-02-16T07:18:57;4.10;;;1.60;;
47225;SDS011;32965;64.142;-21.912;2024-02-16T07:21:23;2.67;;;1.43;;
47225;SDS011;32965;64.142;-21.912;2024-02-16T07:23:51;2.67;;;1.40;;
47225;SDS011;32965;64.142;-21.912;2024-02-16T07:26:17;3.33;;;1.30;;
47225;SDS011;32965;64.142;-21.912;2024-02-16T07:28:43;4.80;;;1.60;;
47225;SDS011;32965;64.142;-21.912;2024-02-16T07:31:09;2.80;;;1.53;;
47225;SDS011;32965;64.142;-21.912;2024-02-16T07:33:36;4.27;;;1.90;;
47225;SDS011;32965;64.142;-21.912;2024-02-16T07:36:02;4.07;;;2.10;;
47225;SDS011;32965;64.142;-21.912;2024-02-16T07:38:28;4.03;;;1.90;;
47225;SDS011;32965;64.142;-21.912;2024-02-16T07:40:54;5.07;;;1.57;;
47225;SDS011;32965;64.142;-21.912;2024-02-16T07:43:20;2.47;;;1.40;;
47225;SDS011;32965;64.142;-21.912;2024-02-16T07:45:49;4.00;;;1.83;;
47225;SDS011;32965;64.142;-21.912;2024-02-16T07:48:15;5.70;;;1.60;;
47225;SDS011;32965;64.142;-21.912;2024-02-16T07:50:41;5.37;;;1.47;;
47225;SDS011;32965;64.142;-21.912;2024-02-16T07:53:06;4.53;;;1.60;;
47225;SDS011;32965;64.142;-21.912;2024-02-16T07:55:34;3.08;;;1.50;;
47225;SDS011;32965;64.142;-21.912;2024-02-16T07:58:00;5.17;;;1.90;;
47225;SDS011;32965;64.142;-21.912;2024-02-16T08:00:26;3.80;;;2.03;;
47225;SDS011;32965;64.142;-21.912;2024-02-16T08:02:53;7.13;;;2.60;;
47225;SDS011;32965;64.142;-21.912;2024-02-16T08:05:18;3.40;;;1.63;;
47225;SDS011;32965;64.142;-21.912;2024-02-16T08:07:46;6.20;;;1.97;;
47225;SDS011;32965;64.142;-21.912;2024-02-16T08:10:12;3.03;;;1.70;;
47225;SDS011;32965;64.142;-21.912;2024-02-16T08:12:38;5.13;;;1.77;;
47225;SDS011;32965;64.142;-21.912;2024-02-16T08:15:05;5.53;;;2.10;;
47225;SDS011;32965;64.142;-21.912;2024-02-16T08:17:35;3.50;;;2.23;;
47225;SDS011;32965;64.142;-21.912;2024-02-16T08:20:02;3.80;;;1.60;;
47225;SDS011;32965;64.142;-21.912;2024-02-16T08:22:28;3.83;;;1.73;;
47225;SDS011;32965;64.142;-21.912;2024-02-16T08:24:54;5.00;;;1.93;;
47225;SDS011;32965;64.142;-21.912;2024-02-16T08:27:20;6.40;;;2.00;;
47225;SDS011;32965;64.142;-21.912;2024-02-16T08:29:46;5.83;;;2.00;;
47225;SDS011;32965;64.142;-21.912;2024-02-16T08:32:11;4.23;;;1.90;;
47225;SDS011;32965;64.142;-21.912;2024-02-16T08:34:37;5.10;;;2.60;;
47225;SDS011;32965;64.142;-21.912;2024-02-16T08:37:04;11.20;;;2.50;;
47225;SDS011;32965;64.142;-21.912;2024-02-16T08:39:31;4.30;;;1.90;;
47225;SDS011;32965;64.142;-21.912;2024-02-16T08:41:59;3.55;;;1.98;;
47225;SDS011;32965;64.142;-21.912;2024-02-16T08:44:25;9.63;;;2.20;;
47225;SDS011;32965;64.142;-21.912;2024-02-16T08:46:51;4.37;;;2.00;;
47225;SDS011;32965;64.142;-21.912;2024-02-16T08:49:18;5.13;;;2.37;;
47225;SDS011;32965;64.142;-21.912;2024-02-16T08:51:44;4.83;;;2.10;;
47225;SDS011;32965;64.142;-21.912;2024-02-16T08:54:10;4.63;;;2.37;;
47225;SDS011;32965;64.142;-21.912;2024-02-16T08:56:36;7.47;;;1.90;;
47225;SDS011;32965;64.142;-21.912;2024-02-16T08:59:04;5.53;;;2.40;;
47225;SDS011;32965;64.142;-21.912;2024-02-16T09:01:31;4.20;;;2.07;;
47225;SDS011;32965;64.142;-21.912;2024-02-16T09:03:57;5.47;;;2.30;;
47225;SDS011;32965;64.142;-21.912;2024-02-16T09:06:23;5.93;;;1.97;;
47225;SDS011;32965;64.142;-21.912;2024-02-16T09:08:50;6.20;;;2.10;;
47225;SDS011;32965;64.142;-21.912;2024-02-16T09:11:15;6.63;;;1.70;;
47225;SDS011;32965;64.142;-21.912;2024-02-16T09:13:42;3.40;;;1.90;;
47225;SDS011;32965;64.142;-21.912;2024-02-16T09:16:08;4.83;;;1.90;;
47225;SDS011;32965;64.142;-21.912;2024-02-16T09:18:34;3.67;;;1.87;;
47225;SDS011;32965;64.142;-21.912;2024-02-16T09:21:02;8.87;;;2.87;;
47225;SDS011;32965;64.142;-21.912;2024-02-16T09:23:28;4.80;;;2.13;;
47225;SDS011;32965;64.142;-21.912;2024-02-16T09:25:54;6.33;;;2.43;;
47225;SDS011;32965;64.142;-21.912;2024-02-16T09:28:20;6.83;;;2.50;;
47225;SDS011;32965;64.142;-21.912;2024-02-16T09:30:46;11.97;;;2.80;;
47225;SDS011;32965;64.142;-21.912;2024-02-16T09:33:12;4.47;;;1.97;;
47225;SDS011;32965;64.142;-21.912;2024-02-16T09:35:41;4.50;;;2.22;;
47225;SDS011;32965;64.142;-21.912;2024-02-16T09:38:07;3.70;;;1.70;;
47225;SDS011;32965;64.142;-21.912;2024-02-16T09:40:35;7.38;;;1.73;;
47225;SDS011;32965;64.142;-21.912;2024-02-16T09:43:02;4.97;;;1.60;;
47225;SDS011;32965;64.142;-21.912;2024-02-16T09:45:28;4.27;;;1.70;;
47225;SDS011;32965;64.142;-21.912;2024-02-16T09:47:54;3.90;;;1.27;;
47225;SDS011;32965;64.142;-21.912;2024-02-16T09:50:20;4.40;;;2.00;;
47225;SDS011;32965;64.142;-21.912;2024-02-16T09:52:47;3.83;;;1.50;;
47225;SDS011;32965;64.142;-21.912;2024-02-16T09:55:14;3.43;;;1.70;;
47225;SDS011;32965;64.142;-21.912;2024-02-16T09:57:41;2.30;;;1.00;;
47225;SDS011;32965;64.142;-21.912;2024-02-16T10:00:08;5.33;;;1.10;;
47225;SDS011;32965;64.142;-21.912;2024-02-16T10:05:17;5.13;;;1.10;;
47225;SDS011;32965;64.142;-21.912;2024-02-16T10:07:46;2.58;;;1.15;;
47225;SDS011;32965;64.142;-21.912;2024-02-16T10:10:25;4.00;;;1.40;;
47225;SDS011;32965;64.142;-21.912;2024-02-16T10:13:07;4.73;;;1.90;;
47225;SDS011;32965;64.142;-21.912;2024-02-16T10:15:33;3.87;;;1.40;;
47225;SDS011;32965;64.142;-21.912;2024-02-16T10:18:08;2.37;;;1.20;;
47225;SDS011;32965;64.142;-21.912;2024-02-16T10:20:35;2.93;;;1.13;;
47225;SDS011;32965;64.142;-21.912;2024-02-16T10:25:36;4.10;;;1.43;;
47225;SDS011;32965;64.142;-21.912;2024-02-16T10:28:05;12.68;;;1.70;;
47225;SDS011;32965;64.142;-21.912;2024-02-16T10:30:38;4.60;;;1.95;;
47225;SDS011;32965;64.142;-21.912;2024-02-16T10:33:07;4.33;;;1.83;;
47225;SDS011;32965;64.142;-21.912;2024-02-16T10:35:35;2.30;;;1.37;;
47225;SDS011;32965;64.142;-21.912;2024-02-16T10:38:02;3.63;;;1.47;;
47225;SDS011;32965;64.142;-21.912;2024-02-16T10:40:37;2.60;;;1.23;;
47225;SDS011;32965;64.142;-21.912;2024-02-16T10:43:04;3.50;;;1.53;;
47225;SDS011;32965;64.142;-21.912;2024-02-16T10:45:33;2.63;;;1.13;;
47225;SDS011;32965;64.142;-21.912;2024-02-16T10:48:04;3.50;;;1.50;;
47225;SDS011;32965;64.142;-21.912;2024-02-16T10:50:31;3.37;;;2.00;;
47225;SDS011;32965;64.142;-21.912;2024-02-16T10:53:00;4.70;;;1.27;;
47225;SDS011;32965;64.142;-21.912;2024-02-16T10:55:30;3.47;;;1.50;;
47225;SDS011;32965;64.142;-21.912;2024-02-16T10:57:56;3.23;;;1.80;;
47225;SDS011;32965;64.142;-21.912;2024-02-16T11:00:24;2.33;;;1.63;;
47225;SDS011;32965;64.142;-21.912;2024-02-16T11:05:39;1.70;;;0.90;;
47225;SDS011;32965;64.142;-21.912;2024-02-16T11:08:13;6.97;;;2.13;;
47225;SDS011;32965;64.142;-21.912;2024-02-16T11:10:40;3.43;;;1.33;;
47225;SDS011;32965;64.142;-21.912;2024-02-16T11:13:06;2.37;;;1.50;;
47225;SDS011;32965;64.142;-21.912;2024-02-16T11:15:35;5.28;;;1.25;;
47225;SDS011;32965;64.142;-21.912;2024-02-16T11:18:03;3.77;;;1.30;;
47225;SDS011;32965;64.142;-21.912;2024-02-16T11:20:35;4.23;;;1.80;;
47225;SDS011;32965;64.142;-21.912;2024-02-16T11:23:06;1.70;;;1.20;;
47225;SDS011;32965;64.142;-21.912;2024-02-16T11:25:34;5.15;;;1.52;;
47225;SDS011;32965;64.142;-21.912;2024-02-16T11:28:01;2.50;;;1.40;;
47225;SDS011;32965;64.142;-21.912;2024-02-16T11:30:33;3.33;;;1.40;;
47225;SDS011;32965;64.142;-21.912;2024-02-16T11:33:02;6.37;;;1.87;;
47225;SDS011;32965;64.142;-21.912;2024-02-16T11:35:28;4.47;;;1.30;;
47225;SDS011;32965;64.142;-21.912;2024-02-16T11:37:55;3.30;;;1.67;;
47225;SDS011;32965;64.142;-21.912;2024-02-16T11:40:21;2.80;;;1.77;;
47225;SDS011;32965;64.142;-21.912;2024-02-16T11:42:47;2.40;;;1.20;;
47225;SDS011;32965;64.142;-21.912;2024-02-16T11:45:13;2.80;;;1.37;;
47225;SDS011;32965;64.142;-21.912;2024-02-16T11:47:40;4.00;;;1.33;;
47225;SDS011;32965;64.142;-21.912;2024-02-16T11:50:07;3.87;;;1.43;;
47225;SDS011;32965;64.142;-21.912;2024-02-16T11:52:40;1.87;;;1.40;;
47225;SDS011;32965;64.142;-21.912;2024-02-16T11:55:09;3.97;;;1.10;;
47225;SDS011;32965;64.142;-21.912;2024-02-16T11:57:36;1.53;;;0.97;;
47225;SDS011;32965;64.142;-21.912;2024-02-16T12:00:03;5.27;;;1.23;;
47225;SDS011;32965;64.142;-21.912;2024-02-16T12:02:34;2.33;;;1.13;;
47225;SDS011;32965;64.142;-21.912;2024-02-16T12:05:01;1.85;;;1.00;;
47225;SDS011;32965;64.142;-21.912;2024-02-16T12:07:27;1.70;;;1.00;;
47225;SDS011;32965;64.142;-21.912;2024-02-16T12:09:57;3.50;;;1.20;;
47225;SDS011;32965;64.142;-21.912;2024-02-16T12:12:23;6.70;;;1.40;;
47225;SDS011;32965;64.142;-21.912;2024-02-16T12:14:49;4.17;;;1.10;;
47225;SDS011;32965;64.142;-21.912;2024-02-16T12:17:15;2.70;;;1.50;;
47225;SDS011;32965;64.142;-21.912;2024-02-16T12:19:44;1.60;;;1.00;;
47225;SDS011;32965;64.142;-21.912;2024-02-16T12:22:15;3.07;;;0.90;;
47225;SDS011;32965;64.142;-21.912;2024-02-16T12:24:48;3.47;;;0.83;;
47225;SDS011;32965;64.142;-21.912;2024-02-16T12:27:17;1.50;;;1.00;;
47225;SDS011;32965;64.142;-21.912;2024-02-16T12:29:43;3.27;;;1.10;;
47225;SDS011;32965;64.142;-21.912;2024-02-16T12:32:09;1.73;;;0.70;;
47225;SDS011;32965;64.142;-21.912;2024-02-16T12:34:35;4.00;;;1.30;;
47225;SDS011;32965;64.142;-21.912;2024-02-16T12:39:35;2.43;;;0.80;;
47225;SDS011;32965;64.142;-21.912;2024-02-16T12:42:01;4.47;;;1.10;;
47225;SDS011;32965;64.142;-21.912;2024-02-16T12:44:28;3.87;;;1.60;;
47225;SDS011;32965;64.142;-21.912;2024-02-16T12:46:53;1.83;;;1.00;;
47225;SDS011;32965;64.142;-21.912;2024-02-16T12:49:19;2.73;;;1.00;;
47225;SDS011;32965;64.142;-21.912;2024-02-16T12:51:47;4.13;;;0.70;;
47225;SDS011;32965;64.142;-21.912;2024-02-16T12:54:17;1.03;;;0.70;;
47225;SDS011;32965;64.142;-21.912;2024-02-16T12:56:47;2.67;;;0.60;;
47225;SDS011;32965;64.142;-21.912;2024-02-16T12:59:14;2.43;;;0.60;;
47225;SDS011;32965;64.142;-21.912;2024-02-16T13:01:40;2.00;;;1.03;;
47225;SDS011;32965;64.142;-21.912;2024-02-16T13:04:07;0.60;;;0.60;;
47225;SDS011;32965;64.142;-21.912;2024-02-16T13:06:33;0.83;;;0.43;;
47225;SDS011;32965;64.142;-21.912;2024-02-16T13:09:00;1.00;;;0.70;;
47225;SDS011;32965;64.142;-21.912;2024-02-16T13:11:27;2.70;;;0.83;;
47225;SDS011;32965;64.142;-21.912;2024-02-16T13:13:54;0.90;;;0.57;;
47225;SDS011;32965;64.142;-21.912;2024-02-16T13:16:19;1.10;;;0.50;;
47225;SDS011;32965;64.142;-21.912;2024-02-16T13:18:46;1.43;;;1.00;;
47225;SDS011;32965;64.142;-21.912;2024-02-16T13:21:12;2.30;;;0.70;;
47225;SDS011;32965;64.142;-21.912;2024-02-16T13:23:38;1.33;;;1.00;;
47225;SDS011;32965;64.142;-21.912;2024-02-16T13:26:04;3.27;;;0.70;;
47225;SDS011;32965;64.142;-21.912;2024-02-16T13:28:31;0.93;;;0.33;;
47225;SDS011;32965;64.142;-21.912;2024-02-16T13:30:56;0.97;;;0.70;;
47225;SDS011;32965;64.142;-21.912;2024-02-16T13:33:23;1.43;;;0.70;;
47225;SDS011;32965;64.142;-21.912;2024-02-16T13:35:49;1.17;;;0.77;;
47225;SDS011;32965;64.142;-21.912;2024-02-16T13:38:15;1.20;;;0.80;;
47225;SDS011;32965;64.142;-21.912;2024-02-16T13:40:41;1.70;;;0.77;;
47225;SDS011;32965;64.142;-21.912;2024-02-16T13:43:08;2.50;;;0.87;;
47225;SDS011;32965;64.142;-21.912;2024-02-16T13:45:50;3.17;;;0.80;;
47225;SDS011;32965;64.142;-21.912;2024-02-16T13:48:17;1.57;;;0.80;;
47225;SDS011;32965;64.142;-21.912;2024-02-16T13:50:44;3.20;;;0.80;;
47225;SDS011;32965;64.142;-21.912;2024-02-16T13:53:11;4.13;;;1.17;;
47225;SDS011;32965;64.142;-21.912;2024-02-16T13:55:38;1.73;;;0.70;;
47225;SDS011;32965;64.142;-21.912;2024-02-16T13:58:04;1.27;;;0.80;;
47225;SDS011;32965;64.142;-21.912;2024-02-16T14:00:30;1.80;;;1.10;;
47225;SDS011;32965;64.142;-21.912;2024-02-16T14:02:55;2.00;;;1.07;;
47225;SDS011;32965;64.142;-21.912;2024-02-16T14:05:22;1.77;;;0.70;;
47225;SDS011;32965;64.142;-21.912;2024-02-16T14:07:50;2.92;;;0.90;;
47225;SDS011;32965;64.142;-21.912;2024-02-16T14:10:16;2.40;;;1.23;;
47225;SDS011;32965;64.142;-21.912;2024-02-16T14:12:44;3.53;;;0.97;;
47225;SDS011;32965;64.142;-21.912;2024-02-16T14:15:11;2.70;;;0.80;;
47225;SDS011;32965;64.142;-21.912;2024-02-16T14:17:40;0.90;;;0.60;;
47225;SDS011;32965;64.142;-21.912;2024-02-16T14:20:07;1.87;;;0.90;;
47225;SDS011;32965;64.142;-21.912;2024-02-16T14:22:33;0.90;;;0.60;;
47225;SDS011;32965;64.142;-21.912;2024-02-16T14:25:00;1.73;;;0.87;;
47225;SDS011;32965;64.142;-21.912;2024-02-16T14:27:26;3.33;;;0.80;;
47225;SDS011;32965;64.142;-21.912;2024-02-16T14:29:52;1.90;;;1.20;;
47225;SDS011;32965;64.142;-21.912;2024-02-16T14:32:18;2.07;;;0.50;;
47225;SDS011;32965;64.142;-21.912;2024-02-16T14:34:45;0.80;;;0.53;;
47225;SDS011;32965;64.142;-21.912;2024-02-16T14:37:10;0.60;;;0.50;;
47225;SDS011;32965;64.142;-21.912;2024-02-16T14:39:37;2.50;;;1.10;;